sensor_id;sensor_type;location;lat;lon;timestamp;pressure;altitude;pressure_sealevel;temperature;humidity
76404;BME280;65232;48.358;2.122;2023-03-01T00:00:14;101878.75;;;2.35;50.25
76404;BME280;65232;48.358;2.122;2023-03-01T00:00:40;101876.19;;;2.32;50.71
76404;BME280;65232;48.358;2.122;2023-03-01T00:01:09;101877.06;;;2.33;50.18
76404;BME280;65232;48.358;2.122;2023-03-01T00:01:34;101880.66;;;2.30;50.27
76404;BME280;65232;48.358;2.122;2023-03-01T00:02:00;101877.19;;;2.28;50.06
76404;BME280;65232;48.358;2.122;2023-03-01T00:02:26;101880.69;;;2.29;50.31
76404;BME280;65232;48.358;2.122;2023-03-01T00:02:51;101873.50;;;2.34;50.14
76404;BME280;65232;48.358;2.122;2023-03-01T00:03:17;101882.03;;;2.42;49.66
76404;BME280;65232;48.358;2.122;2023-03-01T00:03:42;101883.84;;;2.40;49.70
76404;BME280;65232;48.358;2.122;2023-03-01T00:04:08;101871.69;;;2.36;49.91
76404;BME280;65232;48.358;2.122;2023-03-01T00:04:33;101873.28;;;2.40;49.99
76404;BME280;65232;48.358;2.122;2023-03-01T00:05:00;101874.88;;;2.45;49.76
76404;BME280;65232;48.358;2.122;2023-03-01T00:05:26;101873.19;;;2.43;49.97
76404;BME280;65232;48.358;2.122;2023-03-01T00:05:51;101871.38;;;2.45;50.03
76404;BME280;65232;48.358;2.122;2023-03-01T00:06:18;101880.13;;;2.47;49.64
76404;BME280;65232;48.358;2.122;2023-03-01T00:06:44;101874.94;;;2.44;49.87
76404;BME280;65232;48.358;2.122;2023-03-01T00:07:12;101873.16;;;2.44;50.12
76404;BME280;65232;48.358;2.122;2023-03-01T00:07:38;101873.28;;;2.40;50.32
76404;BME280;65232;48.358;2.122;2023-03-01T00:08:03;101877.63;;;2.42;50.15
76404;BME280;65232;48.358;2.122;2023-03-01T00:08:29;101871.81;;;2.31;50.11
76404;BME280;65232;48.358;2.122;2023-03-01T00:08:55;101875.47;;;2.27;50.25
76404;BME280;65232;48.358;2.122;2023-03-01T00:09:20;101874.63;;;2.25;50.60
76404;BME280;65232;48.358;2.122;2023-03-01T00:09:46;101874.47;;;2.31;50.11
76404;BME280;65232;48.358;2.122;2023-03-01T00:10:11;101873.50;;;2.34;50.37
76404;BME280;65232;48.358;2.122;2023-03-01T00:10:37;101864.81;;;2.30;50.65
76404;BME280;65232;48.358;2.122;2023-03-01T00:11:08;101873.78;;;2.25;50.40
76404;BME280;65232;48.358;2.122;2023-03-01T00:11:34;101878.44;;;2.17;50.82
76404;BME280;65232;48.358;2.122;2023-03-01T00:11:59;101878.72;;;2.07;51.28
76404;BME280;65232;48.358;2.122;2023-03-01T00:12:25;101878.53;;;2.13;51.00
76404;BME280;65232;48.358;2.122;2023-03-01T00:12:50;101872.34;;;2.15;50.76
76404;BME280;65232;48.358;2.122;2023-03-01T00:13:15;101880.22;;;2.16;50.95
76404;BME280;65232;48.358;2.122;2023-03-01T00:13:41;101870.81;;;2.07;50.62
76404;BME280;65232;48.358;2.122;2023-03-01T00:14:07;101874.38;;;2.06;50.83
76404;BME280;65232;48.358;2.122;2023-03-01T00:14:32;101872.59;;;2.07;51.07
76404;BME280;65232;48.358;2.122;2023-03-01T00:14:58;101877.63;;;2.15;50.87
76404;BME280;65232;48.358;2.122;2023-03-01T00:15:24;101882.84;;;2.16;50.73
76404;BME280;65232;48.358;2.122;2023-03-01T00:15:49;101874.75;;;2.22;50.29
76404;BME280;65232;48.358;2.122;2023-03-01T00:16:21;101871.34;;;2.19;50.76
76404;BME280;65232;48.358;2.122;2023-03-01T00:16:46;101881.91;;;2.19;50.84
76404;BME280;65232;48.358;2.122;2023-03-01T00:17:12;101875.66;;;2.21;50.93
76404;BME280;65232;48.358;2.122;2023-03-01T00:17:37;101874.81;;;2.21;51.00
76404;BME280;65232;48.358;2.122;2023-03-01T00:18:03;101873.16;;;2.17;50.95
76404;BME280;65232;48.358;2.122;2023-03-01T00:18:28;101871.09;;;2.26;50.67
76404;BME280;65232;48.358;2.122;2023-03-01T00:18:55;101873.72;;;2.26;50.87
76404;BME280;65232;48.358;2.122;2023-03-01T00:19:20;101877.50;;;2.19;50.98
76404;BME280;65232;48.358;2.122;2023-03-01T00:19:47;101880.13;;;2.19;51.06
76404;BME280;65232;48.358;2.122;2023-03-01T00:20:12;101874.94;;;2.16;50.93
76404;BME280;65232;48.358;2.122;2023-03-01T00:20:38;101878.53;;;2.13;50.94
76404;BME280;65232;48.358;2.122;2023-03-01T00:21:03;101872.38;;;2.13;50.98
76404;BME280;65232;48.358;2.122;2023-03-01T00:21:29;101880.03;;;2.22;50.97
76404;BME280;65232;48.358;2.122;2023-03-01T00:21:54;101875.59;;;2.23;51.06
76404;BME280;65232;48.358;2.122;2023-03-01T00:22:20;101876.75;;;2.14;51.55
76404;BME280;65232;48.358;2.122;2023-03-01T00:22:45;101874.97;;;2.15;51.52
76404;BME280;65232;48.358;2.122;2023-03-01T00:23:11;101876.59;;;2.20;51.21
76404;BME280;65232;48.358;2.122;2023-03-01T00:23:37;101868.88;;;2.12;51.13
76404;BME280;65232;48.358;2.122;2023-03-01T00:24:03;101871.75;;;2.05;51.37
76404;BME280;65232;48.358;2.122;2023-03-01T00:24:29;101877.13;;;2.02;51.49
76404;BME280;65232;48.358;2.122;2023-03-01T00:24:54;101871.00;;;2.01;51.77
76404;BME280;65232;48.358;2.122;2023-03-01T00:25:20;101868.22;;;2.06;51.51
76404;BME280;65232;48.358;2.122;2023-03-01T00:25:45;101872.47;;;2.10;51.22
76404;BME280;65232;48.358;2.122;2023-03-01T00:26:13;101878.47;;;2.15;51.41
76404;BME280;65232;48.358;2.122;2023-03-01T00:26:39;101874.97;;;2.15;51.45
76404;BME280;65232;48.358;2.122;2023-03-01T00:27:05;101878.66;;;2.09;51.02
76404;BME280;65232;48.358;2.122;2023-03-01T00:27:31;101876.19;;;2.04;51.60
76404;BME280;65232;48.358;2.122;2023-03-01T00:27:56;101875.97;;;2.10;51.45
76404;BME280;65232;48.358;2.122;2023-03-01T00:28:22;101874.44;;;2.03;51.65
76404;BME280;65232;48.358;2.122;2023-03-01T00:28:47;101873.59;;;2.03;51.84
76404;BME280;65232;48.358;2.122;2023-03-01T00:29:13;101871.00;;;2.01;51.88
76404;BME280;65232;48.358;2.122;2023-03-01T00:29:38;101871.03;;;2.00;51.77
76404;BME280;65232;48.358;2.122;2023-03-01T00:30:04;101879.00;;;1.98;51.56
76404;BME280;65232;48.358;2.122;2023-03-01T00:30:30;101875.56;;;1.95;51.79
76404;BME280;65232;48.358;2.122;2023-03-01T00:30:55;101870.25;;;1.96;51.80
76404;BME280;65232;48.358;2.122;2023-03-01T00:31:24;101871.97;;;1.97;51.62
76404;BME280;65232;48.358;2.122;2023-03-01T00:31:50;101875.31;;;2.04;52.04
76404;BME280;65232;48.358;2.122;2023-03-01T00:32:16;101871.19;;;1.94;51.81
76404;BME280;65232;48.358;2.122;2023-03-01T00:32:41;101872.03;;;1.96;51.68
76404;BME280;65232;48.358;2.122;2023-03-01T00:33:07;101873.13;;;1.89;51.83
76404;BME280;65232;48.358;2.122;2023-03-01T00:33:32;101872.25;;;1.88;51.99
76404;BME280;65232;48.358;2.122;2023-03-01T00:34:00;101872.97;;;1.93;52.10
76404;BME280;65232;48.358;2.122;2023-03-01T00:34:26;101874.63;;;1.97;51.74
76404;BME280;65232;48.358;2.122;2023-03-01T00:34:52;101875.63;;;1.93;52.01
76404;BME280;65232;48.358;2.122;2023-03-01T00:35:21;101870.50;;;1.89;51.90
76404;BME280;65232;48.358;2.122;2023-03-01T00:35:48;101869.53;;;1.91;52.32
76404;BME280;65232;48.358;2.122;2023-03-01T00:36:14;101869.63;;;1.88;52.10
76404;BME280;65232;48.358;2.122;2023-03-01T00:36:40;101871.34;;;1.89;52.18
76404;BME280;65232;48.358;2.122;2023-03-01T00:37:05;101883.66;;;1.90;52.06
76404;BME280;65232;48.358;2.122;2023-03-01T00:37:31;101873.97;;;1.91;52.27
76404;BME280;65232;48.358;2.122;2023-03-01T00:37:57;101875.69;;;1.92;52.29
76404;BME280;65232;48.358;2.122;2023-03-01T00:38:23;101882.63;;;1.94;52.34
76404;BME280;65232;48.358;2.122;2023-03-01T00:38:48;101870.44;;;1.90;51.99
76404;BME280;65232;48.358;2.122;2023-03-01T00:39:14;101870.53;;;1.87;51.82
76404;BME280;65232;48.358;2.122;2023-03-01T00:39:40;101870.50;;;1.89;52.00
76404;BME280;65232;48.358;2.122;2023-03-01T00:40:06;101874.09;;;1.86;51.96
76404;BME280;65232;48.358;2.122;2023-03-01T00:40:33;101880.16;;;1.90;52.09
76404;BME280;65232;48.358;2.122;2023-03-01T00:41:06;101880.81;;;1.96;51.95
76404;BME280;65232;48.358;2.122;2023-03-01T00:41:32;101876.44;;;1.95;52.26
76404;BME280;65232;48.358;2.122;2023-03-01T00:41:59;101871.94;;;1.99;51.71
76404;BME280;65232;48.358;2.122;2023-03-01T00:42:25;101876.34;;;1.98;51.82
76404;BME280;65232;48.358;2.122;2023-03-01T00:42:50;101874.53;;;2.00;51.94
76404;BME280;65232;48.358;2.122;2023-03-01T00:43:16;101878.00;;;2.02;52.10
76404;BME280;65232;48.358;2.122;2023-03-01T00:43:42;101876.19;;;2.04;52.20
76404;BME280;65232;48.358;2.122;2023-03-01T00:44:08;101869.13;;;2.05;52.24
76404;BME280;65232;48.358;2.122;2023-03-01T00:44:34;101876.09;;;2.07;51.96
76404;BME280;65232;48.358;2.122;2023-03-01T00:45:00;101874.44;;;2.03;51.72
76404;BME280;65232;48.358;2.122;2023-03-01T00:45:25;101877.22;;;1.99;51.67
76404;BME280;65232;48.358;2.122;2023-03-01T00:45:52;101875.47;;;1.98;51.97
76404;BME280;65232;48.358;2.122;2023-03-01T00:46:20;101879.03;;;1.97;52.19
76404;BME280;65232;48.358;2.122;2023-03-01T00:46:45;101880.75;;;1.98;52.34
76404;BME280;65232;48.358;2.122;2023-03-01T00:47:11;101881.66;;;1.97;52.16
76404;BME280;65232;48.358;2.122;2023-03-01T00:47:36;101883.38;;;1.99;51.91
76404;BME280;65232;48.358;2.122;2023-03-01T00:48:02;101880.81;;;1.96;52.34
76404;BME280;65232;48.358;2.122;2023-03-01T00:48:28;101883.66;;;1.90;51.70
76404;BME280;65232;48.358;2.122;2023-03-01T00:48:54;101888.03;;;1.91;52.01
76404;BME280;65232;48.358;2.122;2023-03-01T00:49:20;101884.50;;;1.91;51.80
76404;BME280;65232;48.358;2.122;2023-03-01T00:49:45;101881.06;;;1.89;52.28
76404;BME280;65232;48.358;2.122;2023-03-01T00:50:11;101888.19;;;1.85;52.12
76404;BME280;65232;48.358;2.122;2023-03-01T00:50:36;101882.75;;;1.91;52.31
76404;BME280;65232;48.358;2.122;2023-03-01T00:51:26;101882.13;;;1.82;52.30
76404;BME280;65232;48.358;2.122;2023-03-01T00:51:52;101882.81;;;1.88;52.21
76404;BME280;65232;48.358;2.122;2023-03-01T00:52:17;101889.00;;;1.87;52.25
76404;BME280;65232;48.358;2.122;2023-03-01T00:52:43;101886.28;;;1.90;52.38
76404;BME280;65232;48.358;2.122;2023-03-01T00:53:08;101884.69;;;1.85;52.44
76404;BME280;65232;48.358;2.122;2023-03-01T00:53:34;101885.78;;;1.77;52.28
76404;BME280;65232;48.358;2.122;2023-03-01T00:54:01;101891.97;;;1.76;52.61
76404;BME280;65232;48.358;2.122;2023-03-01T00:54:26;101885.88;;;1.74;52.55
76404;BME280;65232;48.358;2.122;2023-03-01T00:54:52;101887.47;;;1.78;52.53
76404;BME280;65232;48.358;2.122;2023-03-01T00:55:18;101895.47;;;1.77;52.63
76404;BME280;65232;48.358;2.122;2023-03-01T00:55:43;101891.22;;;1.71;53.05
76404;BME280;65232;48.358;2.122;2023-03-01T00:56:11;101883.22;;;1.74;53.12
76404;BME280;65232;48.358;2.122;2023-03-01T00:56:37;101892.75;;;1.78;52.79
76404;BME280;65232;48.358;2.122;2023-03-01T00:57:03;101874.41;;;1.75;52.47
76404;BME280;65232;48.358;2.122;2023-03-01T00:57:29;101891.19;;;1.73;52.74
76404;BME280;65232;48.358;2.122;2023-03-01T00:57:54;101887.44;;;1.80;52.45
76404;BME280;65232;48.358;2.122;2023-03-01T00:58:19;101875.16;;;1.79;52.48
76404;BME280;65232;48.358;2.122;2023-03-01T00:58:45;101881.38;;;1.78;52.68
76404;BME280;65232;48.358;2.122;2023-03-01T00:59:10;101879.56;;;1.78;52.83
76404;BME280;65232;48.358;2.122;2023-03-01T00:59:37;101889.09;;;1.84;52.65
76404;BME280;65232;48.358;2.122;2023-03-01T01:00:04;101892.88;;;1.75;52.67
76404;BME280;65232;48.358;2.122;2023-03-01T01:00:30;101885.94;;;1.71;52.55
76404;BME280;65232;48.358;2.122;2023-03-01T01:00:55;101892.84;;;1.77;52.69
76404;BME280;65232;48.358;2.122;2023-03-01T01:01:24;101888.34;;;1.79;52.85
76404;BME280;65232;48.358;2.122;2023-03-01T01:01:52;101891.09;;;1.76;52.52
76404;BME280;65232;48.358;2.122;2023-03-01T01:02:18;101888.28;;;1.82;52.70
76404;BME280;65232;48.358;2.122;2023-03-01T01:02:45;101890.94;;;1.81;52.69
76404;BME280;65232;48.358;2.122;2023-03-01T01:03:10;101895.50;;;1.75;52.59
76404;BME280;65232;48.358;2.122;2023-03-01T01:03:36;101889.38;;;1.75;52.49
76404;BME280;65232;48.358;2.122;2023-03-01T01:04:05;101896.38;;;1.76;52.79
76404;BME280;65232;48.358;2.122;2023-03-01T01:04:30;101893.75;;;1.76;52.95
76404;BME280;65232;48.358;2.122;2023-03-01T01:04:56;101889.34;;;1.76;53.12
76404;BME280;65232;48.358;2.122;2023-03-01T01:05:22;101890.34;;;1.71;52.91
76404;BME280;65232;48.358;2.122;2023-03-01T01:05:47;101887.63;;;1.74;52.79
76404;BME280;65232;48.358;2.122;2023-03-01T01:06:24;101894.72;;;1.72;52.58
76404;BME280;65232;48.358;2.122;2023-03-01T01:06:49;101891.97;;;1.76;52.86
76404;BME280;65232;48.358;2.122;2023-03-01T01:07:15;101893.91;;;1.70;52.91
76404;BME280;65232;48.358;2.122;2023-03-01T01:07:41;101890.44;;;1.68;53.24
76404;BME280;65232;48.358;2.122;2023-03-01T01:08:06;101890.34;;;1.71;52.95
76404;BME280;65232;48.358;2.122;2023-03-01T01:08:32;101894.94;;;1.64;53.12
76404;BME280;65232;48.358;2.122;2023-03-01T01:08:57;101888.91;;;1.61;53.15
76404;BME280;65232;48.358;2.122;2023-03-01T01:09:23;101889.72;;;1.63;52.90
76404;BME280;65232;48.358;2.122;2023-03-01T01:09:48;101888.78;;;1.64;53.04
76404;BME280;65232;48.358;2.122;2023-03-01T01:10:14;101886.06;;;1.67;53.16
76404;BME280;65232;48.358;2.122;2023-03-01T01:10:44;101890.47;;;1.66;53.23
76404;BME280;65232;48.358;2.122;2023-03-01T01:11:10;101889.56;;;1.67;53.28
76404;BME280;65232;48.358;2.122;2023-03-01T01:11:36;101890.56;;;1.63;53.50
76404;BME280;65232;48.358;2.122;2023-03-01T01:12:02;101890.47;;;1.66;53.46
76404;BME280;65232;48.358;2.122;2023-03-01T01:12:28;101890.41;;;1.69;53.50
76404;BME280;65232;48.358;2.122;2023-03-01T01:12:53;101892.16;;;1.69;53.26
76404;BME280;65232;48.358;2.122;2023-03-01T01:13:19;101894.03;;;1.65;53.52
76404;BME280;65232;48.358;2.122;2023-03-01T01:13:45;101891.25;;;1.70;53.42
76404;BME280;65232;48.358;2.122;2023-03-01T01:14:11;101889.41;;;1.73;53.11
76404;BME280;65232;48.358;2.122;2023-03-01T01:14:37;101894.59;;;1.76;53.21
76404;BME280;65232;48.358;2.122;2023-03-01T01:15:02;101899.97;;;1.73;53.31
76404;BME280;65232;48.358;2.122;2023-03-01T01:15:28;101892.06;;;1.73;53.08
76404;BME280;65232;48.358;2.122;2023-03-01T01:15:53;101891.84;;;1.80;53.12
76404;BME280;65232;48.358;2.122;2023-03-01T01:16:20;101894.81;;;1.69;53.14
76404;BME280;65232;48.358;2.122;2023-03-01T01:16:46;101896.50;;;1.71;53.15
76404;BME280;65232;48.358;2.122;2023-03-01T01:17:11;101889.53;;;1.69;53.35
76404;BME280;65232;48.358;2.122;2023-03-01T01:17:37;101892.25;;;1.66;53.51
76404;BME280;65232;48.358;2.122;2023-03-01T01:18:02;101896.78;;;1.62;53.24
76404;BME280;65232;48.358;2.122;2023-03-01T01:18:28;101894.88;;;1.66;53.23
76404;BME280;65232;48.358;2.122;2023-03-01T01:18:53;101895.25;;;1.54;53.39
76404;BME280;65232;48.358;2.122;2023-03-01T01:19:19;101891.81;;;1.50;53.48
76404;BME280;65232;48.358;2.122;2023-03-01T01:19:44;101892.63;;;1.52;53.76
76404;BME280;65232;48.358;2.122;2023-03-01T01:20:11;101890.16;;;1.48;53.48
76404;BME280;65232;48.358;2.122;2023-03-01T01:20:37;101892.72;;;1.49;53.49
76404;BME280;65232;48.358;2.122;2023-03-01T01:21:08;101893.59;;;1.50;53.98
76404;BME280;65232;48.358;2.122;2023-03-01T01:21:33;101891.94;;;1.47;54.08
76404;BME280;65232;48.358;2.122;2023-03-01T01:21:59;101892.59;;;1.54;53.98
76404;BME280;65232;48.358;2.122;2023-03-01T01:22:24;101895.16;;;1.57;53.82
76404;BME280;65232;48.358;2.122;2023-03-01T01:22:50;101889.88;;;1.57;53.74
76404;BME280;65232;48.358;2.122;2023-03-01T01:23:16;101890.69;;;1.60;53.89
76404;BME280;65232;48.358;2.122;2023-03-01T01:23:42;101891.69;;;1.55;54.01
76404;BME280;65232;48.358;2.122;2023-03-01T01:24:09;101894.38;;;1.53;53.88
76404;BME280;65232;48.358;2.122;2023-03-01T01:24:36;101889.84;;;1.58;53.96
76404;BME280;65232;48.358;2.122;2023-03-01T01:25:01;101896.94;;;1.56;53.69
76404;BME280;65232;48.358;2.122;2023-03-01T01:25:27;101890.72;;;1.59;53.64
76404;BME280;65232;48.358;2.122;2023-03-01T01:25:53;101891.63;;;1.58;53.95
76404;BME280;65232;48.358;2.122;2023-03-01T01:26:22;101891.63;;;1.58;53.96
76404;BME280;65232;48.358;2.122;2023-03-01T01:26:49;101892.53;;;1.57;53.82
76404;BME280;65232;48.358;2.122;2023-03-01T01:27:14;101888.13;;;1.57;53.76
76404;BME280;65232;48.358;2.122;2023-03-01T01:27:40;101888.97;;;1.58;53.71
76404;BME280;65232;48.358;2.122;2023-03-01T01:28:05;101888.03;;;1.60;54.13
76404;BME280;65232;48.358;2.122;2023-03-01T01:28:31;101885.28;;;1.63;53.74
76404;BME280;65232;48.358;2.122;2023-03-01T01:28:57;101887.84;;;1.66;53.57
76404;BME280;65232;48.358;2.122;2023-03-01T01:29:23;101881.19;;;1.53;53.60
76404;BME280;65232;48.358;2.122;2023-03-01T01:29:49;101879.75;;;1.41;53.98
76404;BME280;65232;48.358;2.122;2023-03-01T01:30:14;101884.13;;;1.42;54.56
76404;BME280;65232;48.358;2.122;2023-03-01T01:30:40;101879.06;;;1.35;54.75
76404;BME280;65232;48.358;2.122;2023-03-01T01:31:05;101876.41;;;1.35;54.47
76404;BME280;65232;48.358;2.122;2023-03-01T01:31:32;101881.66;;;1.36;54.23
76404;BME280;65232;48.358;2.122;2023-03-01T01:31:58;101882.47;;;1.38;54.20
76404;BME280;65232;48.358;2.122;2023-03-01T01:32:24;101877.16;;;1.40;54.38
76404;BME280;65232;48.358;2.122;2023-03-01T01:32:49;101877.19;;;1.38;54.69
76404;BME280;65232;48.358;2.122;2023-03-01T01:33:15;101879.69;;;1.45;54.40
76404;BME280;65232;48.358;2.122;2023-03-01T01:33:40;101878.84;;;1.42;54.26
76404;BME280;65232;48.358;2.122;2023-03-01T01:34:08;101877.91;;;1.45;54.36
76404;BME280;65232;48.358;2.122;2023-03-01T01:34:38;101872.56;;;1.48;54.00
76404;BME280;65232;48.358;2.122;2023-03-01T01:35:03;101881.50;;;1.42;54.16
76404;BME280;65232;48.358;2.122;2023-03-01T01:35:29;101878.09;;;1.37;54.51
76404;BME280;65232;48.358;2.122;2023-03-01T01:35:54;101869.34;;;1.37;54.57
76404;BME280;65232;48.358;2.122;2023-03-01T01:36:20;101871.88;;;1.40;54.41
76404;BME280;65232;48.358;2.122;2023-03-01T01:36:53;101879.75;;;1.41;54.13
76404;BME280;65232;48.358;2.122;2023-03-01T01:37:19;101874.50;;;1.41;54.26
76404;BME280;65232;48.358;2.122;2023-03-01T01:37:44;101876.22;;;1.42;54.22
76404;BME280;65232;48.358;2.122;2023-03-01T01:38:10;101879.88;;;1.37;54.24
76404;BME280;65232;48.358;2.122;2023-03-01T01:38:36;101877.25;;;1.37;54.29
76404;BME280;65232;48.358;2.122;2023-03-01T01:39:02;101886.16;;;1.33;54.76
76404;BME280;65232;48.358;2.122;2023-03-01T01:39:28;101874.66;;;1.35;54.67
76404;BME280;65232;48.358;2.122;2023-03-01T01:39:53;101879.84;;;1.38;54.64
76404;BME280;65232;48.358;2.122;2023-03-01T01:40:19;101865.75;;;1.39;54.79
76404;BME280;65232;48.358;2.122;2023-03-01T01:40:45;101869.22;;;1.41;54.45
76404;BME280;65232;48.358;2.122;2023-03-01T01:41:12;101873.69;;;1.38;54.58
76404;BME280;65232;48.358;2.122;2023-03-01T01:41:40;101871.69;;;1.48;54.04
76404;BME280;65232;48.358;2.122;2023-03-01T01:42:15;101870.13;;;1.40;54.08
76404;BME280;65232;48.358;2.122;2023-03-01T01:42:41;101872.00;;;1.35;54.45
76404;BME280;65232;48.358;2.122;2023-03-01T01:43:16;101865.81;;;1.36;54.52
76404;BME280;65232;48.358;2.122;2023-03-01T01:43:48;101865.75;;;1.39;54.45
76404;BME280;65232;48.358;2.122;2023-03-01T01:44:24;101866.69;;;1.37;54.11
76404;BME280;65232;48.358;2.122;2023-03-01T01:46:04;101865.56;;;1.47;54.19
76404;BME280;65232;48.358;2.122;2023-03-01T01:46:31;101864.78;;;1.44;53.83
76404;BME280;65232;48.358;2.122;2023-03-01T01:47:04;101864.66;;;1.48;53.83
76404;BME280;65232;48.358;2.122;2023-03-01T01:47:31;101873.59;;;1.42;53.93
76404;BME280;65232;48.358;2.122;2023-03-01T01:48:11;101876.38;;;1.36;53.83
76404;BME280;65232;48.358;2.122;2023-03-01T01:48:48;101869.34;;;1.37;54.20
76404;BME280;65232;48.358;2.122;2023-03-01T01:49:22;101871.22;;;1.33;53.99
76404;BME280;65232;48.358;2.122;2023-03-01T01:49:52;101878.09;;;1.37;54.01
76404;BME280;65232;48.358;2.122;2023-03-01T01:50:19;101864.03;;;1.38;54.32
76404;BME280;65232;48.358;2.122;2023-03-01T01:50:44;101873.75;;;1.36;54.40
76404;BME280;65232;48.358;2.122;2023-03-01T01:51:18;101872.88;;;1.36;54.74
76404;BME280;65232;48.358;2.122;2023-03-01T01:51:45;101877.25;;;1.37;54.62
76404;BME280;65232;48.358;2.122;2023-03-01T01:52:26;101872.19;;;1.29;54.47
76404;BME280;65232;48.358;2.122;2023-03-01T01:52:53;101872.31;;;1.25;54.32
76404;BME280;65232;48.358;2.122;2023-03-01T01:53:20;101873.44;;;1.16;54.50
76404;BME280;65232;48.358;2.122;2023-03-01T01:53:50;101873.53;;;1.12;54.74
76404;BME280;65232;48.358;2.122;2023-03-01T01:54:34;101872.59;;;1.14;55.16
76404;BME280;65232;48.358;2.122;2023-03-01T01:55:17;101869.00;;;1.18;54.92
76404;BME280;65232;48.358;2.122;2023-03-01T01:55:49;101871.50;;;1.21;54.75
76404;BME280;65232;48.358;2.122;2023-03-01T01:56:18;101868.91;;;1.20;54.53
76404;BME280;65232;48.358;2.122;2023-03-01T01:56:48;101870.75;;;1.18;54.75
76404;BME280;65232;48.358;2.122;2023-03-01T01:57:19;101869.78;;;1.20;54.73
76404;BME280;65232;48.358;2.122;2023-03-01T01:57:51;101872.31;;;1.25;55.08
76404;BME280;65232;48.358;2.122;2023-03-01T01:58:20;101872.34;;;1.23;55.38
76404;BME280;65232;48.358;2.122;2023-03-01T01:58:46;101867.06;;;1.23;54.86
76404;BME280;65232;48.358;2.122;2023-03-01T01:59:13;101868.81;;;1.24;55.14
76404;BME280;65232;48.358;2.122;2023-03-01T01:59:43;101861.81;;;1.23;55.47
76404;BME280;65232;48.358;2.122;2023-03-01T02:00:14;101865.25;;;1.25;55.44
76404;BME280;65232;48.358;2.122;2023-03-01T02:00:40;101856.38;;;1.29;55.21
76404;BME280;65232;48.358;2.122;2023-03-01T02:01:05;101859.06;;;1.28;54.79
76404;BME280;65232;48.358;2.122;2023-03-01T02:01:32;101864.41;;;1.25;55.14
76404;BME280;65232;48.358;2.122;2023-03-01T02:01:59;101867.97;;;1.22;55.08
76404;BME280;65232;48.358;2.122;2023-03-01T02:02:27;101864.31;;;1.28;54.87
76404;BME280;65232;48.358;2.122;2023-03-01T02:02:58;101859.88;;;1.30;55.17
76404;BME280;65232;48.358;2.122;2023-03-01T02:03:28;101864.34;;;1.26;55.38
76404;BME280;65232;48.358;2.122;2023-03-01T02:03:54;101859.00;;;1.29;55.62
76404;BME280;65232;48.358;2.122;2023-03-01T02:04:20;101863.50;;;1.26;55.55
76404;BME280;65232;48.358;2.122;2023-03-01T02:04:47;101855.47;;;1.30;54.99
76404;BME280;65232;48.358;2.122;2023-03-01T02:05:23;101858.38;;;1.20;54.90
76404;BME280;65232;48.358;2.122;2023-03-01T02:06:46;101862.09;;;1.13;56.04
76404;BME280;65232;48.358;2.122;2023-03-01T02:07:19;101860.91;;;1.24;55.51
76404;BME280;65232;48.358;2.122;2023-03-01T02:07:47;101862.09;;;1.13;55.60
76404;BME280;65232;48.358;2.122;2023-03-01T02:08:14;101856.50;;;1.25;55.20
76404;BME280;65232;48.358;2.122;2023-03-01T02:08:42;101864.63;;;1.17;55.46
76404;BME280;65232;48.358;2.122;2023-03-01T02:09:13;101858.44;;;1.18;55.59
76404;BME280;65232;48.358;2.122;2023-03-01T02:09:43;101861.19;;;1.14;55.44
76404;BME280;65232;48.358;2.122;2023-03-01T02:10:10;101857.72;;;1.12;55.69
76404;BME280;65232;48.358;2.122;2023-03-01T02:10:37;101854.38;;;1.05;55.79
76404;BME280;65232;48.358;2.122;2023-03-01T02:11:03;101856.16;;;1.04;55.68
76404;BME280;65232;48.358;2.122;2023-03-01T02:11:30;101854.09;;;1.17;55.61
76404;BME280;65232;48.358;2.122;2023-03-01T02:11:57;101855.88;;;1.15;55.50
76404;BME280;65232;48.358;2.122;2023-03-01T02:12:24;101849.03;;;1.08;55.91
76404;BME280;65232;48.358;2.122;2023-03-01T02:12:50;101852.38;;;1.15;55.59
76404;BME280;65232;48.358;2.122;2023-03-01T02:13:16;101849.81;;;1.12;55.60
76404;BME280;65232;48.358;2.122;2023-03-01T02:13:42;101851.75;;;1.05;55.70
76404;BME280;65232;48.358;2.122;2023-03-01T02:14:08;101860.63;;;1.02;56.16
76404;BME280;65232;48.358;2.122;2023-03-01T02:14:33;101846.63;;;1.00;56.19
76404;BME280;65232;48.358;2.122;2023-03-01T02:14:59;101842.22;;;1.01;56.43
76404;BME280;65232;48.358;2.122;2023-03-01T02:15:24;101850.94;;;1.03;56.35
76404;BME280;65232;48.358;2.122;2023-03-01T02:15:52;101847.31;;;1.07;56.28
76404;BME280;65232;48.358;2.122;2023-03-01T02:16:19;101850.94;;;1.03;56.12
76404;BME280;65232;48.358;2.122;2023-03-01T02:16:45;101846.34;;;1.10;55.89
76404;BME280;65232;48.358;2.122;2023-03-01T02:17:12;101844.59;;;1.10;55.87
76404;BME280;65232;48.358;2.122;2023-03-01T02:17:40;101845.56;;;1.06;56.22
76404;BME280;65232;48.358;2.122;2023-03-01T02:18:08;101843.06;;;1.01;56.23
76404;BME280;65232;48.358;2.122;2023-03-01T02:18:34;101833.41;;;1.02;55.85
76404;BME280;65232;48.358;2.122;2023-03-01T02:19:00;101845.56;;;1.06;55.71
76404;BME280;65232;48.358;2.122;2023-03-01T02:21:52;101846.31;;;1.11;55.76
76404;BME280;65232;48.358;2.122;2023-03-01T02:22:06;101836.72;;;1.09;55.67
76404;BME280;65232;48.358;2.122;2023-03-01T02:22:38;101836.75;;;1.07;55.88
76404;BME280;65232;48.358;2.122;2023-03-01T02:23:04;101839.41;;;1.07;56.01
76404;BME280;65232;48.358;2.122;2023-03-01T02:23:30;101839.56;;;1.01;55.72
76404;BME280;65232;48.358;2.122;2023-03-01T02:23:59;101833.63;;;0.93;56.33
76404;BME280;65232;48.358;2.122;2023-03-01T02:25:58;101837.97;;;0.95;56.18
76404;BME280;65232;48.358;2.122;2023-03-01T02:27:00;101836.22;;;0.94;57.12
76404;BME280;65232;48.358;2.122;2023-03-01T02:27:32;101834.41;;;0.96;56.88
76404;BME280;65232;48.358;2.122;2023-03-01T02:28:41;101832.72;;;0.94;56.13
76404;BME280;65232;48.358;2.122;2023-03-01T02:29:08;101835.47;;;0.89;56.21
76404;BME280;65232;48.358;2.122;2023-03-01T02:29:33;101832.94;;;0.86;56.40
76404;BME280;65232;48.358;2.122;2023-03-01T02:29:59;101837.22;;;0.90;56.53